Olpenitz, Germany

2:45 AM CEST on October 01, 2014 (GMT +0200)
Suederbrarup | Change Station
CLOSE
Current Station
Personal Weather Station
Location: Süderbrarup, SCHLESWIG-HOLSTEIN
Elevation: 50 ft
Nearby Weather Stations

Elev 50 ft 54.64 °N, 9.78 °E | Updated 16 seconds ago

Light Rain Showers
Light Showers Rain Mist
59.0 °F
Feels Like 59.0 °F
N
0.2
Wind Variable Wind from WSW
Gusts 2.9 mph

Today
High -- | Low -- °F
--% Chance of Precip.
Yesterday
High -- | Low -- °F
Precip. -- in
7:21 AM 6:56 PM
Waxing Crescent, 41% visible
Pressure 30.24 in
Visibility 0.9 miles
Clouds Mostly Cloudy 200 ft
Mostly Cloudy 800 ft
Dew Point 59 °F
Humidity 99%
Rainfall 0.00 in
Snow Depth Not available.
UV 0.0 out of 12
Pollen Not available.
Air Quality Not available.
Flu Activity Not available.
METAR ETGG 010020Z 18004KT 1500 -SHRA BR BKN002 BKN008 15/14 Q1024 AMB

More Conditions Fewer Conditions

Pressure 30.24 in
Visibility 0.9 miles
Clouds Mostly Cloudy 200 ft
Mostly Cloudy 800 ft
Dew Point 59 °F
Humidity 99%
Rainfall 0.00 in
Snow Depth Not available.
UV 0.0 out of 12
Pollen Not available.
Air Quality Not available.
Flu Activity Not available.
METAR ETGG 010020Z 18004KT 1500 -SHRA BR BKN002 BKN008 15/14 Q1024 AMB

More Conditions Fewer Conditions

10-Day Weather Forecast

Almanac

Astronomy

Oct. 01, 2014 Rise Set
Actual Time 7:21 AM CEST 6:56 PM CEST
Civil Twilight 6:45 AM CEST 7:32 PM CEST
Nautical Twilight 6:03 AM CEST 8:13 PM CEST
Astronomical Twilight 5:20 AM CEST 8:56 PM CEST
Moon 2:51 PM CEST 11:29 PM CEST
Length of Visible Light 12h 46m
Length of Day
11h 34m
Tomorrow will be 4m 24s shorter.
Waxing Crescent, 41% of the Moon is Illuminated
Sep 30
Waxing Crescent
Oct 1
First Quarter
Oct 8
Full
Oct 15
Last Quarter
Oct 23
New

Yesterday's Extremes

Country Highs Country Lows

Community

WunderPhotos

Upload Photos

1,757,801 photos uploaded!

Nearby

Snow Depth

Not available.

Earthquake Activity

City Distance Mag. Time & Date
No recent earthquake activity has been reported nearby.
Minimum magnitude displayed is 2.5.

Coastal Water Temperatures

Place Temperature
No Stations Reporting

Nearby Weather Stations